sensor_id;sensor_type;location;lat;lon;timestamp;P1;durP1;ratioP1;P2;durP2;ratioP2
43527;SDS011;52359;42.658;23.320;2023-04-24T08:12:30;10.93;;;5.68;;
43527;SDS011;52359;42.658;23.320;2023-04-24T08:14:56;9.10;;;5.88;;
43527;SDS011;52359;42.658;23.320;2023-04-24T08:17:23;17.55;;;6.40;;
43527;SDS011;52359;42.658;23.320;2023-04-24T08:19:50;10.40;;;5.82;;
43527;SDS011;52359;42.658;23.320;2023-04-24T08:22:18;9.50;;;5.70;;
43527;SDS011;52359;42.658;23.320;2023-04-24T08:24:44;17.92;;;5.40;;
43527;SDS011;52359;42.658;23.320;2023-04-24T08:27:10;17.85;;;6.28;;
43527;SDS011;52359;42.658;23.320;2023-04-24T08:29:36;10.82;;;5.85;;
43527;SDS011;52359;42.658;23.320;2023-04-24T08:32:02;15.23;;;6.38;;
43527;SDS011;52359;42.658;23.320;2023-04-24T08:34:28;27.65;;;6.63;;
43527;SDS011;52359;42.658;23.320;2023-04-24T08:36:54;23.67;;;5.90;;
43527;SDS011;52359;42.658;23.320;2023-04-24T08:39:20;9.88;;;5.55;;
43527;SDS011;52359;42.658;23.320;2023-04-24T08:41:46;15.52;;;6.25;;
43527;SDS011;52359;42.658;23.320;2023-04-24T08:44:14;37.15;;;7.15;;
43527;SDS011;52359;42.658;23.320;2023-04-24T08:46:42;17.10;;;7.03;;
43527;SDS011;52359;42.658;23.320;2023-04-24T08:49:08;15.95;;;5.65;;
43527;SDS011;52359;42.658;23.320;2023-04-24T08:51:35;17.75;;;6.40;;
43527;SDS011;52359;42.658;23.320;2023-04-24T08:54:02;16.67;;;5.07;;
43527;SDS011;52359;42.658;23.320;2023-04-24T08:56:29;12.70;;;5.65;;
43527;SDS011;52359;42.658;23.320;2023-04-24T08:58:56;18.50;;;5.93;;
43527;SDS011;52359;42.658;23.320;2023-04-24T09:01:22;11.02;;;5.60;;
43527;SDS011;52359;42.658;23.320;2023-04-24T09:03:49;18.80;;;6.60;;
43527;SDS011;52359;42.658;23.320;2023-04-24T09:06:16;15.48;;;5.85;;
43527;SDS011;52359;42.658;23.320;2023-04-24T09:08:43;7.25;;;5.22;;
43527;SDS011;52359;42.658;23.320;2023-04-24T09:11:10;11.80;;;5.05;;
43527;SDS011;52359;42.658;23.320;2023-04-24T09:13:37;9.98;;;5.00;;
43527;SDS011;52359;42.658;23.320;2023-04-24T09:16:03;13.93;;;4.95;;
43527;SDS011;52359;42.658;23.320;2023-04-24T09:18:29;10.50;;;4.90;;
43527;SDS011;52359;42.658;23.320;2023-04-24T09:23:29;10.35;;;5.38;;
43527;SDS011;52359;42.658;23.320;2023-04-24T09:25:55;7.95;;;5.10;;
43527;SDS011;52359;42.658;23.320;2023-04-24T09:28:40;14.57;;;5.38;;
43527;SDS011;52359;42.658;23.320;2023-04-24T09:33:37;9.48;;;4.65;;
43527;SDS011;52359;42.658;23.320;2023-04-24T09:36:03;12.80;;;4.07;;
43527;SDS011;52359;42.658;23.320;2023-04-24T09:38:31;7.22;;;4.07;;
43527;SDS011;52359;42.658;23.320;2023-04-24T09:41:02;14.07;;;4.70;;
43527;SDS011;52359;42.658;23.320;2023-04-24T09:43:30;12.25;;;4.55;;
43527;SDS011;52359;42.658;23.320;2023-04-24T09:45:56;16.50;;;4.70;;
43527;SDS011;52359;42.658;23.320;2023-04-24T09:48:29;13.02;;;4.55;;
43527;SDS011;52359;42.658;23.320;2023-04-24T09:51:00;12.13;;;4.32;;
43527;SDS011;52359;42.658;23.320;2023-04-24T09:53:28;8.43;;;4.13;;
43527;SDS011;52359;42.658;23.320;2023-04-24T09:55:55;12.23;;;3.80;;
43527;SDS011;52359;42.658;23.320;2023-04-24T09:58:24;13.32;;;4.90;;
43527;SDS011;52359;42.658;23.320;2023-04-24T10:00:53;8.55;;;4.47;;
43527;SDS011;52359;42.658;23.320;2023-04-24T10:03:20;8.43;;;4.65;;
43527;SDS011;52359;42.658;23.320;2023-04-24T10:05:46;10.95;;;4.30;;
43527;SDS011;52359;42.658;23.320;2023-04-24T10:08:12;6.75;;;4.07;;
43527;SDS011;52359;42.658;23.320;2023-04-24T10:10:39;9.30;;;4.55;;
43527;SDS011;52359;42.658;23.320;2023-04-24T10:13:09;7.28;;;3.75;;
43527;SDS011;52359;42.658;23.320;2023-04-24T10:15:36;12.07;;;4.50;;
43527;SDS011;52359;42.658;23.320;2023-04-24T10:18:03;5.07;;;3.88;;
43527;SDS011;52359;42.658;23.320;2023-04-24T10:20:31;12.43;;;3.67;;
43527;SDS011;52359;42.658;23.320;2023-04-24T10:22:58;5.25;;;3.65;;
43527;SDS011;52359;42.658;23.320;2023-04-24T10:25:25;7.50;;;3.72;;
43527;SDS011;52359;42.658;23.320;2023-04-24T10:27:55;8.82;;;4.38;;
43527;SDS011;52359;42.658;23.320;2023-04-24T10:30:28;6.88;;;3.50;;
43527;SDS011;52359;42.658;23.320;2023-04-24T10:33:04;20.63;;;4.13;;
43527;SDS011;52359;42.658;23.320;2023-04-24T10:35:32;6.95;;;4.05;;
43527;SDS011;52359;42.658;23.320;2023-04-24T10:38:02;11.43;;;3.78;;
43527;SDS011;52359;42.658;23.320;2023-04-24T10:40:33;9.55;;;3.30;;
43527;SDS011;52359;42.658;23.320;2023-04-24T10:43:01;11.27;;;4.10;;
43527;SDS011;52359;42.658;23.320;2023-04-24T10:45:28;6.10;;;3.28;;
43527;SDS011;52359;42.658;23.320;2023-04-24T10:47:57;5.15;;;3.88;;
43527;SDS011;52359;42.658;23.320;2023-04-24T10:50:26;5.68;;;3.55;;
43527;SDS011;52359;42.658;23.320;2023-04-24T10:52:53;7.80;;;3.58;;
43527;SDS011;52359;42.658;23.320;2023-04-24T10:55:39;9.88;;;4.45;;
43527;SDS011;52359;42.658;23.320;2023-04-24T10:58:09;12.65;;;3.88;;
43527;SDS011;52359;42.658;23.320;2023-04-24T11:00:39;8.52;;;3.40;;
43527;SDS011;52359;42.658;23.320;2023-04-24T11:03:06;6.78;;;3.17;;
43527;SDS011;52359;42.658;23.320;2023-04-24T11:05:49;4.03;;;3.07;;
43527;SDS011;52359;42.658;23.320;2023-04-24T11:08:21;4.38;;;2.55;;
43527;SDS011;52359;42.658;23.320;2023-04-24T11:16:25;10.77;;;4.60;;
43527;SDS011;52359;42.658;23.320;2023-04-24T11:21:46;10.18;;;4.10;;
43527;SDS011;52359;42.658;23.320;2023-04-24T11:24:24;11.90;;;4.20;;
43527;SDS011;52359;42.658;23.320;2023-04-24T11:27:21;5.45;;;3.33;;
43527;SDS011;52359;42.658;23.320;2023-04-24T11:35:13;9.00;;;2.83;;
43527;SDS011;52359;42.658;23.320;2023-04-24T11:37:41;7.30;;;3.53;;
43527;SDS011;52359;42.658;23.320;2023-04-24T11:40:14;6.35;;;2.05;;
43527;SDS011;52359;42.658;23.320;2023-04-24T11:42:41;5.65;;;2.70;;
43527;SDS011;52359;42.658;23.320;2023-04-24T11:45:12;3.85;;;2.33;;
43527;SDS011;52359;42.658;23.320;2023-04-24T11:47:39;9.20;;;2.53;;
43527;SDS011;52359;42.658;23.320;2023-04-24T11:50:10;7.70;;;3.08;;
43527;SDS011;52359;42.658;23.320;2023-04-24T11:52:37;7.85;;;3.00;;
43527;SDS011;52359;42.658;23.320;2023-04-24T11:55:06;8.63;;;2.60;;
43527;SDS011;52359;42.658;23.320;2023-04-24T11:57:44;7.68;;;2.95;;
43527;SDS011;52359;42.658;23.320;2023-04-24T12:00:18;3.10;;;2.83;;
43527;SDS011;52359;42.658;23.320;2023-04-24T12:02:45;4.40;;;3.17;;
43527;SDS011;52359;42.658;23.320;2023-04-24T12:07:49;8.18;;;2.90;;
43527;SDS011;52359;42.658;23.320;2023-04-24T12:10:19;3.97;;;3.22;;
43527;SDS011;52359;42.658;23.320;2023-04-24T12:12:50;3.08;;;2.70;;
43527;SDS011;52359;42.658;23.320;2023-04-24T12:15:17;4.70;;;2.58;;
43527;SDS011;52359;42.658;23.320;2023-04-24T12:17:44;5.53;;;2.60;;
43527;SDS011;52359;42.658;23.320;2023-04-24T12:20:11;5.97;;;3.25;;
43527;SDS011;52359;42.658;23.320;2023-04-24T12:25:14;8.05;;;3.20;;
43527;SDS011;52359;42.658;23.320;2023-04-24T12:27:41;7.78;;;2.90;;
43527;SDS011;52359;42.658;23.320;2023-04-24T12:30:10;4.65;;;3.10;;
43527;SDS011;52359;42.658;23.320;2023-04-24T12:32:48;7.60;;;2.70;;
43527;SDS011;52359;42.658;23.320;2023-04-24T12:35:19;5.30;;;2.40;;
43527;SDS011;52359;42.658;23.320;2023-04-24T12:37:46;4.32;;;3.10;;
43527;SDS011;52359;42.658;23.320;2023-04-24T12:40:12;3.13;;;2.80;;
43527;SDS011;52359;42.658;23.320;2023-04-24T12:42:46;3.83;;;2.28;;
43527;SDS011;52359;42.658;23.320;2023-04-24T12:45:14;3.97;;;2.35;;
43527;SDS011;52359;42.658;23.320;2023-04-24T12:47:41;4.80;;;3.38;;
43527;SDS011;52359;42.658;23.320;2023-04-24T12:50:09;14.18;;;4.00;;
43527;SDS011;52359;42.658;23.320;2023-04-24T12:52:36;4.28;;;2.55;;
43527;SDS011;52359;42.658;23.320;2023-04-24T12:55:02;6.20;;;3.10;;
43527;SDS011;52359;42.658;23.320;2023-04-24T12:57:30;5.47;;;3.38;;
43527;SDS011;52359;42.658;23.320;2023-04-24T12:59:57;7.57;;;3.70;;
43527;SDS011;52359;42.658;23.320;2023-04-24T13:02:24;9.48;;;3.17;;
43527;SDS011;52359;42.658;23.320;2023-04-24T13:04:51;6.47;;;3.20;;
43527;SDS011;52359;42.658;23.320;2023-04-24T13:07:17;8.65;;;3.20;;
43527;SDS011;52359;42.658;23.320;2023-04-24T13:09:43;5.80;;;3.10;;
43527;SDS011;52359;42.658;23.320;2023-04-24T13:12:10;11.23;;;3.42;;
43527;SDS011;52359;42.658;23.320;2023-04-24T13:14:36;4.63;;;3.10;;
43527;SDS011;52359;42.658;23.320;2023-04-24T13:17:02;10.35;;;3.42;;
43527;SDS011;52359;42.658;23.320;2023-04-24T13:19:28;12.88;;;3.33;;
43527;SDS011;52359;42.658;23.320;2023-04-24T13:21:55;16.48;;;3.13;;
43527;SDS011;52359;42.658;23.320;2023-04-24T13:24:22;7.15;;;3.05;;
43527;SDS011;52359;42.658;23.320;2023-04-24T13:26:52;8.60;;;2.92;;
43527;SDS011;52359;42.658;23.320;2023-04-24T13:29:17;7.63;;;3.80;;
43527;SDS011;52359;42.658;23.320;2023-04-24T13:31:43;5.38;;;2.90;;
43527;SDS011;52359;42.658;23.320;2023-04-24T13:34:09;8.07;;;3.35;;
43527;SDS011;52359;42.658;23.320;2023-04-24T13:36:35;13.50;;;3.22;;
43527;SDS011;52359;42.658;23.320;2023-04-24T13:39:01;6.38;;;3.20;;
43527;SDS011;52359;42.658;23.320;2023-04-24T13:41:29;9.35;;;2.97;;
43527;SDS011;52359;42.658;23.320;2023-04-24T13:43:55;5.53;;;3.15;;
43527;SDS011;52359;42.658;23.320;2023-04-24T13:46:21;6.82;;;3.35;;
43527;SDS011;52359;42.658;23.320;2023-04-24T13:48:47;6.35;;;3.15;;
43527;SDS011;52359;42.658;23.320;2023-04-24T13:51:15;10.90;;;4.00;;
43527;SDS011;52359;42.658;23.320;2023-04-24T13:53:41;4.30;;;3.05;;
43527;SDS011;52359;42.658;23.320;2023-04-24T13:56:07;9.65;;;3.35;;
43527;SDS011;52359;42.658;23.320;2023-04-24T13:58:33;4.07;;;3.30;;
43527;SDS011;52359;42.658;23.320;2023-04-24T14:01:07;9.15;;;2.97;;
43527;SDS011;52359;42.658;23.320;2023-04-24T14:03:33;7.82;;;2.97;;
43527;SDS011;52359;42.658;23.320;2023-04-24T14:05:59;5.07;;;2.88;;
43527;SDS011;52359;42.658;23.320;2023-04-24T14:08:24;6.38;;;3.13;;
43527;SDS011;52359;42.658;23.320;2023-04-24T14:10:50;5.63;;;3.40;;
43527;SDS011;52359;42.658;23.320;2023-04-24T14:13:16;6.80;;;3.10;;
43527;SDS011;52359;42.658;23.320;2023-04-24T14:15:42;5.28;;;3.28;;
43527;SDS011;52359;42.658;23.320;2023-04-24T14:18:08;10.57;;;3.55;;
43527;SDS011;52359;42.658;23.320;2023-04-24T14:20:33;8.57;;;2.90;;
43527;SDS011;52359;42.658;23.320;2023-04-24T14:22:59;5.95;;;3.83;;
43527;SDS011;52359;42.658;23.320;2023-04-24T14:25:25;6.32;;;2.90;;
43527;SDS011;52359;42.658;23.320;2023-04-24T14:27:51;10.38;;;3.60;;
43527;SDS011;52359;42.658;23.320;2023-04-24T14:30:17;8.30;;;3.47;;
43527;SDS011;52359;42.658;23.320;2023-04-24T14:32:43;4.80;;;3.28;;
43527;SDS011;52359;42.658;23.320;2023-04-24T14:35:09;8.32;;;3.35;;
43527;SDS011;52359;42.658;23.320;2023-04-24T14:37:34;4.50;;;3.10;;
43527;SDS011;52359;42.658;23.320;2023-04-24T14:40:01;12.15;;;3.67;;
43527;SDS011;52359;42.658;23.320;2023-04-24T14:42:29;3.90;;;2.63;;
43527;SDS011;52359;42.658;23.320;2023-04-24T14:44:55;3.65;;;2.83;;
43527;SDS011;52359;42.658;23.320;2023-04-24T14:47:21;10.00;;;3.45;;
43527;SDS011;52359;42.658;23.320;2023-04-24T14:49:47;6.20;;;3.17;;
43527;SDS011;52359;42.658;23.320;2023-04-24T14:52:13;12.38;;;2.92;;
43527;SDS011;52359;42.658;23.320;2023-04-24T14:54:40;9.82;;;3.20;;
43527;SDS011;52359;42.658;23.320;2023-04-24T14:57:07;5.10;;;2.55;;
43527;SDS011;52359;42.658;23.320;2023-04-24T14:59:33;15.23;;;4.00;;
43527;SDS011;52359;42.658;23.320;2023-04-24T15:01:59;6.10;;;3.72;;
43527;SDS011;52359;42.658;23.320;2023-04-24T15:04:26;10.63;;;3.72;;
43527;SDS011;52359;42.658;23.320;2023-04-24T15:06:52;3.90;;;3.40;;
43527;SDS011;52359;42.658;23.320;2023-04-24T15:09:19;10.43;;;3.63;;
43527;SDS011;52359;42.658;23.320;2023-04-24T15:11:45;6.07;;;3.90;;
43527;SDS011;52359;42.658;23.320;2023-04-24T15:14:11;8.57;;;3.70;;
43527;SDS011;52359;42.658;23.320;2023-04-24T15:16:38;4.28;;;3.40;;
43527;SDS011;52359;42.658;23.320;2023-04-24T15:19:04;9.85;;;3.42;;
43527;SDS011;52359;42.658;23.320;2023-04-24T15:21:30;7.28;;;4.07;;
43527;SDS011;52359;42.658;23.320;2023-04-24T15:23:57;8.77;;;4.70;;
43527;SDS011;52359;42.658;23.320;2023-04-24T15:26:23;11.20;;;4.18;;
43527;SDS011;52359;42.658;23.320;2023-04-24T15:28:49;7.60;;;4.75;;
43527;SDS011;52359;42.658;23.320;2023-04-24T15:31:16;7.75;;;4.47;;
43527;SDS011;52359;42.658;23.320;2023-04-24T15:33:42;7.30;;;4.65;;
43527;SDS011;52359;42.658;23.320;2023-04-24T15:36:08;10.35;;;6.18;;
43527;SDS011;52359;42.658;23.320;2023-04-24T15:38:35;15.30;;;5.90;;
43527;SDS011;52359;42.658;23.320;2023-04-24T15:41:01;9.50;;;5.47;;
43527;SDS011;52359;42.658;23.320;2023-04-24T15:43:27;7.78;;;4.35;;
43527;SDS011;52359;42.658;23.320;2023-04-24T15:45:59;11.05;;;5.28;;
43527;SDS011;52359;42.658;23.320;2023-04-24T15:48:25;10.73;;;4.35;;
43527;SDS011;52359;42.658;23.320;2023-04-24T15:50:51;9.35;;;5.32;;
43527;SDS011;52359;42.658;23.320;2023-04-24T15:53:17;7.55;;;4.57;;
43527;SDS011;52359;42.658;23.320;2023-04-24T15:55:46;11.30;;;5.25;;
43527;SDS011;52359;42.658;23.320;2023-04-24T15:58:12;9.38;;;5.00;;
43527;SDS011;52359;42.658;23.320;2023-04-24T16:00:38;9.98;;;4.78;;
43527;SDS011;52359;42.658;23.320;2023-04-24T16:03:04;10.55;;;5.00;;
43527;SDS011;52359;42.658;23.320;2023-04-24T16:05:32;9.82;;;5.25;;
43527;SDS011;52359;42.658;23.320;2023-04-24T16:07:58;10.05;;;5.25;;
43527;SDS011;52359;42.658;23.320;2023-04-24T16:10:25;10.48;;;5.55;;
43527;SDS011;52359;42.658;23.320;2023-04-24T16:12:51;9.98;;;4.88;;
43527;SDS011;52359;42.658;23.320;2023-04-24T16:15:18;13.60;;;5.22;;
43527;SDS011;52359;42.658;23.320;2023-04-24T16:17:44;15.23;;;6.80;;
43527;SDS011;52359;42.658;23.320;2023-04-24T16:20:11;17.40;;;7.10;;
43527;SDS011;52359;42.658;23.320;2023-04-24T16:22:37;12.85;;;7.05;;
43527;SDS011;52359;42.658;23.320;2023-04-24T16:25:04;9.15;;;6.70;;
43527;SDS011;52359;42.658;23.320;2023-04-24T16:27:30;17.35;;;7.57;;
43527;SDS011;52359;42.658;23.320;2023-04-24T16:29:57;17.38;;;8.48;;
43527;SDS011;52359;42.658;23.320;2023-04-24T16:32:23;17.23;;;8.40;;
43527;SDS011;52359;42.658;23.320;2023-04-24T16:34:49;11.43;;;7.15;;
43527;SDS011;52359;42.658;23.320;2023-04-24T16:37:16;11.68;;;6.53;;
43527;SDS011;52359;42.658;23.320;2023-04-24T16:39:43;14.20;;;6.07;;
43527;SDS011;52359;42.658;23.320;2023-04-24T16:42:10;11.05;;;6.72;;
43527;SDS011;52359;42.658;23.320;2023-04-24T16:44:37;21.05;;;7.20;;
43527;SDS011;52359;42.658;23.320;2023-04-24T16:47:04;17.45;;;7.90;;
43527;SDS011;52359;42.658;23.320;2023-04-24T16:49:30;10.70;;;7.65;;
43527;SDS011;52359;42.658;23.320;2023-04-24T16:51:57;10.10;;;6.50;;
43527;SDS011;52359;42.658;23.320;2023-04-24T16:54:23;8.77;;;6.72;;
43527;SDS011;52359;42.658;23.320;2023-04-24T16:56:50;9.25;;;6.38;;
43527;SDS011;52359;42.658;23.320;2023-04-24T16:59:16;11.70;;;7.50;;
43527;SDS011;52359;42.658;23.320;2023-04-24T17:01:42;16.98;;;8.18;;
43527;SDS011;52359;42.658;23.320;2023-04-24T17:04:08;13.60;;;7.18;;
43527;SDS011;52359;42.658;23.320;2023-04-24T17:06:34;10.90;;;6.05;;
43527;SDS011;52359;42.658;23.320;2023-04-24T17:09:01;10.85;;;7.05;;
43527;SDS011;52359;42.658;23.320;2023-04-24T17:11:28;14.18;;;7.15;;
43527;SDS011;52359;42.658;23.320;2023-04-24T17:13:54;7.78;;;5.88;;
43527;SDS011;52359;42.658;23.320;2023-04-24T17:16:20;10.85;;;5.65;;
43527;SDS011;52359;42.658;23.320;2023-04-24T17:18:46;11.55;;;6.65;;
43527;SDS011;52359;42.658;23.320;2023-04-24T17:21:13;7.75;;;6.30;;
43527;SDS011;52359;42.658;23.320;2023-04-24T17:23:38;7.70;;;6.82;;
43527;SDS011;52359;42.658;23.320;2023-04-24T17:26:04;13.38;;;6.75;;
43527;SDS011;52359;42.658;23.320;2023-04-24T17:28:31;11.20;;;6.53;;
43527;SDS011;52359;42.658;23.320;2023-04-24T17:30:58;13.48;;;7.70;;
43527;SDS011;52359;42.658;23.320;2023-04-24T17:33:27;9.25;;;6.55;;
43527;SDS011;52359;42.658;23.320;2023-04-24T17:35:54;8.50;;;6.88;;
43527;SDS011;52359;42.658;23.320;2023-04-24T17:38:22;9.02;;;7.43;;
43527;SDS011;52359;42.658;23.320;2023-04-24T17:40:48;13.43;;;8.30;;
43527;SDS011;52359;42.658;23.320;2023-04-24T17:43:18;22.70;;;8.38;;
43527;SDS011;52359;42.658;23.320;2023-04-24T17:45:44;13.55;;;8.85;;
43527;SDS011;52359;42.658;23.320;2023-04-24T17:48:11;14.52;;;7.97;;
43527;SDS011;52359;42.658;23.320;2023-04-24T17:50:37;12.18;;;7.45;;
43527;SDS011;52359;42.658;23.320;2023-04-24T17:53:03;12.73;;;8.05;;
43527;SDS011;52359;42.658;23.320;2023-04-24T17:55:29;12.00;;;8.23;;
43527;SDS011;52359;42.658;23.320;2023-04-24T17:57:55;9.77;;;7.53;;
43527;SDS011;52359;42.658;23.320;2023-04-24T18:00:20;9.68;;;6.78;;
43527;SDS011;52359;42.658;23.320;2023-04-24T18:02:46;12.05;;;7.35;;
43527;SDS011;52359;42.658;23.320;2023-04-24T18:05:13;12.98;;;8.00;;
43527;SDS011;52359;42.658;23.320;2023-04-24T18:07:39;12.02;;;8.18;;
43527;SDS011;52359;42.658;23.320;2023-04-24T18:10:05;9.38;;;4.43;;
43527;SDS011;52359;42.658;23.320;2023-04-24T18:12:31;3.75;;;2.85;;
43527;SDS011;52359;42.658;23.320;2023-04-24T18:14:56;9.75;;;4.35;;
43527;SDS011;52359;42.658;23.320;2023-04-24T18:17:23;8.48;;;4.03;;
43527;SDS011;52359;42.658;23.320;2023-04-24T18:19:48;7.70;;;3.53;;
43527;SDS011;52359;42.658;23.320;2023-04-24T18:22:14;4.65;;;3.17;;
43527;SDS011;52359;42.658;23.320;2023-04-24T18:24:40;6.15;;;3.55;;
43527;SDS011;52359;42.658;23.320;2023-04-24T18:27:05;7.63;;;3.17;;
43527;SDS011;52359;42.658;23.320;2023-04-24T18:29:31;5.50;;;3.03;;
43527;SDS011;52359;42.658;23.320;2023-04-24T18:31:57;4.78;;;2.38;;
43527;SDS011;52359;42.658;23.320;2023-04-24T18:34:22;13.50;;;2.95;;
43527;SDS011;52359;42.658;23.320;2023-04-24T18:36:48;4.85;;;2.42;;
43527;SDS011;52359;42.658;23.320;2023-04-24T18:39:13;5.28;;;3.15;;
43527;SDS011;52359;42.658;23.320;2023-04-24T18:41:40;9.43;;;3.25;;
43527;SDS011;52359;42.658;23.320;2023-04-24T18:44:06;3.90;;;3.42;;
43527;SDS011;52359;42.658;23.320;2023-04-24T18:46:33;6.22;;;3.78;;
43527;SDS011;52359;42.658;23.320;2023-04-24T18:49:02;4.53;;;4.07;;
43527;SDS011;52359;42.658;23.320;2023-04-24T18:51:28;7.68;;;4.85;;
43527;SDS011;52359;42.658;23.320;2023-04-24T18:53:54;5.03;;;4.53;;
43527;SDS011;52359;42.658;23.320;2023-04-24T18:56:20;9.07;;;5.35;;
43527;SDS011;52359;42.658;23.320;2023-04-24T18:58:45;8.90;;;6.28;;
43527;SDS011;52359;42.658;23.320;2023-04-24T19:01:11;8.43;;;6.50;;
43527;SDS011;52359;42.658;23.320;2023-04-24T19:03:37;9.60;;;7.85;;
43527;SDS011;52359;42.658;23.320;2023-04-24T19:06:02;15.15;;;7.78;;
43527;SDS011;52359;42.658;23.320;2023-04-24T19:08:28;10.93;;;8.10;;
43527;SDS011;52359;42.658;23.320;2023-04-24T19:10:54;13.45;;;9.50;;
43527;SDS011;52359;42.658;23.320;2023-04-24T19:13:19;12.52;;;8.45;;
43527;SDS011;52359;42.658;23.320;2023-04-24T19:15:45;7.53;;;6.32;;
43527;SDS011;52359;42.658;23.320;2023-04-24T19:18:11;10.70;;;6.68;;
43527;SDS011;52359;42.658;23.320;2023-04-24T19:20:36;8.80;;;6.93;;
43527;SDS011;52359;42.658;23.320;2023-04-24T19:23:02;8.15;;;7.35;;
43527;SDS011;52359;42.658;23.320;2023-04-24T19:25:28;10.95;;;7.15;;
43527;SDS011;52359;42.658;23.320;2023-04-24T19:27:54;10.23;;;8.00;;
43527;SDS011;52359;42.658;23.320;2023-04-24T19:30:21;11.75;;;8.70;;
43527;SDS011;52359;42.658;23.320;2023-04-24T19:32:47;14.57;;;8.80;;
43527;SDS011;52359;42.658;23.320;2023-04-24T19:35:13;8.23;;;7.35;;
43527;SDS011;52359;42.658;23.320;2023-04-24T19:37:39;7.50;;;6.80;;
43527;SDS011;52359;42.658;23.320;2023-04-24T19:40:06;11.65;;;6.82;;
43527;SDS011;52359;42.658;23.320;2023-04-24T19:42:32;10.73;;;7.63;;
43527;SDS011;52359;42.658;23.320;2023-04-24T19:44:58;4.72;;;2.58;;
43527;SDS011;52359;42.658;23.320;2023-04-24T19:47:24;3.85;;;3.10;;
43527;SDS011;52359;42.658;23.320;2023-04-24T19:49:50;4.95;;;4.35;;
43527;SDS011;52359;42.658;23.320;2023-04-24T19:52:16;8.48;;;4.75;;
43527;SDS011;52359;42.658;23.320;2023-04-24T19:54:42;8.60;;;6.32;;
43527;SDS011;52359;42.658;23.320;2023-04-24T19:57:08;11.85;;;7.80;;
43527;SDS011;52359;42.658;23.320;2023-04-24T19:59:34;11.00;;;7.22;;
43527;SDS011;52359;42.658;23.320;2023-04-24T20:02:00;10.57;;;6.72;;
43527;SDS011;52359;42.658;23.320;2023-04-24T20:04:26;7.47;;;4.53;;
43527;SDS011;52359;42.658;23.320;2023-04-24T20:06:52;9.52;;;5.75;;
43527;SDS011;52359;42.658;23.320;2023-04-24T20:09:18;3.53;;;2.90;;
43527;SDS011;52359;42.658;23.320;2023-04-24T20:11:44;4.47;;;2.58;;
43527;SDS011;52359;42.658;23.320;2023-04-24T20:14:14;2.53;;;2.28;;
